sensor_id;sensor_type;location;lat;lon;timestamp;temperature;humidity
76120;DHT22;64852;48.092;-1.640;2023-01-20T00:01:08;5.40;99.90
76120;DHT22;64852;48.092;-1.640;2023-01-20T00:03:35;4.90;99.90
76120;DHT22;64852;48.092;-1.640;2023-01-20T00:06:01;4.80;99.90
76120;DHT22;64852;48.092;-1.640;2023-01-20T00:08:26;4.90;99.90
76120;DHT22;64852;48.092;-1.640;2023-01-20T00:10:52;4.90;99.90
76120;DHT22;64852;48.092;-1.640;2023-01-20T00:13:18;4.90;99.90
76120;DHT22;64852;48.092;-1.640;2023-01-20T00:15:43;5.00;99.90
76120;DHT22;64852;48.092;-1.640;2023-01-20T00:18:09;5.00;99.90
76120;DHT22;64852;48.092;-1.640;2023-01-20T00:20:35;5.00;99.90
76120;DHT22;64852;48.092;-1.640;2023-01-20T00:23:00;5.00;99.90
76120;DHT22;64852;48.092;-1.640;2023-01-20T00:25:26;4.90;99.90
76120;DHT22;64852;48.092;-1.640;2023-01-20T00:27:52;4.90;99.90
76120;DHT22;64852;48.092;-1.640;2023-01-20T00:30:17;4.90;99.90
76120;DHT22;64852;48.092;-1.640;2023-01-20T00:32:43;4.90;99.90
76120;DHT22;64852;48.092;-1.640;2023-01-20T00:35:13;4.90;99.90
76120;DHT22;64852;48.092;-1.640;2023-01-20T00:37:38;4.80;99.90
76120;DHT22;64852;48.092;-1.640;2023-01-20T00:40:05;4.90;99.90
76120;DHT22;64852;48.092;-1.640;2023-01-20T00:42:31;4.80;99.90
76120;DHT22;64852;48.092;-1.640;2023-01-20T00:44:57;4.80;99.90
76120;DHT22;64852;48.092;-1.640;2023-01-20T00:47:22;4.70;99.90
76120;DHT22;64852;48.092;-1.640;2023-01-20T00:49:49;4.70;99.90
76120;DHT22;64852;48.092;-1.640;2023-01-20T00:52:15;4.70;99.90
76120;DHT22;64852;48.092;-1.640;2023-01-20T00:54:43;5.20;99.90
76120;DHT22;64852;48.092;-1.640;2023-01-20T00:57:09;4.70;99.90
76120;DHT22;64852;48.092;-1.640;2023-01-20T00:59:35;4.70;99.90
76120;DHT22;64852;48.092;-1.640;2023-01-20T01:02:00;4.70;99.90
76120;DHT22;64852;48.092;-1.640;2023-01-20T01:04:26;4.70;99.90
76120;DHT22;64852;48.092;-1.640;2023-01-20T01:06:52;4.70;99.90
76120;DHT22;64852;48.092;-1.640;2023-01-20T01:09:17;4.60;99.90
76120;DHT22;64852;48.092;-1.640;2023-01-20T01:11:43;4.60;99.90
76120;DHT22;64852;48.092;-1.640;2023-01-20T01:14:09;5.20;99.90
76120;DHT22;64852;48.092;-1.640;2023-01-20T01:16:34;4.60;99.90
76120;DHT22;64852;48.092;-1.640;2023-01-20T01:19:00;4.60;99.90
76120;DHT22;64852;48.092;-1.640;2023-01-20T01:21:26;4.70;99.90
76120;DHT22;64852;48.092;-1.640;2023-01-20T01:23:52;4.70;99.90
76120;DHT22;64852;48.092;-1.640;2023-01-20T01:26:18;4.60;99.90
76120;DHT22;64852;48.092;-1.640;2023-01-20T01:28:47;4.60;99.90
76120;DHT22;64852;48.092;-1.640;2023-01-20T01:31:13;4.70;99.90
76120;DHT22;64852;48.092;-1.640;2023-01-20T01:33:38;4.60;99.90
76120;DHT22;64852;48.092;-1.640;2023-01-20T01:36:05;4.50;99.90
76120;DHT22;64852;48.092;-1.640;2023-01-20T01:38:33;4.40;99.90
76120;DHT22;64852;48.092;-1.640;2023-01-20T01:40:59;4.50;99.90
76120;DHT22;64852;48.092;-1.640;2023-01-20T01:43:27;4.60;99.90
76120;DHT22;64852;48.092;-1.640;2023-01-20T01:45:52;4.80;99.90
76120;DHT22;64852;48.092;-1.640;2023-01-20T01:48:24;4.60;99.90
76120;DHT22;64852;48.092;-1.640;2023-01-20T01:51:14;4.70;99.90
76120;DHT22;64852;48.092;-1.640;2023-01-20T01:53:49;4.70;99.90
76120;DHT22;64852;48.092;-1.640;2023-01-20T01:56:20;5.20;99.90
76120;DHT22;64852;48.092;-1.640;2023-01-20T01:58:48;4.80;99.90
76120;DHT22;64852;48.092;-1.640;2023-01-20T02:01:16;4.70;99.90
76120;DHT22;64852;48.092;-1.640;2023-01-20T02:06:08;4.70;99.90
76120;DHT22;64852;48.092;-1.640;2023-01-20T02:08:35;5.00;99.90
76120;DHT22;64852;48.092;-1.640;2023-01-20T02:11:01;4.60;99.90
76120;DHT22;64852;48.092;-1.640;2023-01-20T02:13:26;4.70;99.90
76120;DHT22;64852;48.092;-1.640;2023-01-20T02:16:07;4.70;99.90
76120;DHT22;64852;48.092;-1.640;2023-01-20T02:35:12;4.70;99.90
76120;DHT22;64852;48.092;-1.640;2023-01-20T02:37:50;4.70;99.90
76120;DHT22;64852;48.092;-1.640;2023-01-20T02:40:30;4.70;99.90
76120;DHT22;64852;48.092;-1.640;2023-01-20T02:43:10;4.70;99.90
76120;DHT22;64852;48.092;-1.640;2023-01-20T02:46:10;4.70;99.90
76120;DHT22;64852;48.092;-1.640;2023-01-20T02:48:45;4.70;99.90
76120;DHT22;64852;48.092;-1.640;2023-01-20T02:51:17;4.70;99.90
76120;DHT22;64852;48.092;-1.640;2023-01-20T02:53:48;4.60;99.90
76120;DHT22;64852;48.092;-1.640;2023-01-20T02:56:16;4.60;99.90
76120;DHT22;64852;48.092;-1.640;2023-01-20T02:58:49;4.60;99.90
76120;DHT22;64852;48.092;-1.640;2023-01-20T03:04:28;4.60;99.90
76120;DHT22;64852;48.092;-1.640;2023-01-20T03:06:56;4.80;99.90
76120;DHT22;64852;48.092;-1.640;2023-01-20T03:09:32;4.50;99.90
76120;DHT22;64852;48.092;-1.640;2023-01-20T03:12:06;4.70;99.90
76120;DHT22;64852;48.092;-1.640;2023-01-20T03:14:34;4.60;99.90
76120;DHT22;64852;48.092;-1.640;2023-01-20T03:17:00;4.70;99.90
76120;DHT22;64852;48.092;-1.640;2023-01-20T03:19:26;4.70;99.90
76120;DHT22;64852;48.092;-1.640;2023-01-20T03:21:52;4.80;99.90
76120;DHT22;64852;48.092;-1.640;2023-01-20T03:24:18;4.70;99.90
76120;DHT22;64852;48.092;-1.640;2023-01-20T03:26:45;4.70;99.90
76120;DHT22;64852;48.092;-1.640;2023-01-20T03:29:10;4.60;99.90
76120;DHT22;64852;48.092;-1.640;2023-01-20T03:31:38;4.50;99.90
76120;DHT22;64852;48.092;-1.640;2023-01-20T03:34:09;4.50;99.90
76120;DHT22;64852;48.092;-1.640;2023-01-20T03:36:38;4.40;99.90
76120;DHT22;64852;48.092;-1.640;2023-01-20T03:39:04;4.50;99.90
76120;DHT22;64852;48.092;-1.640;2023-01-20T03:52:39;4.90;99.90
76120;DHT22;64852;48.092;-1.640;2023-01-20T03:55:14;4.70;99.90
76120;DHT22;64852;48.092;-1.640;2023-01-20T03:57:53;4.60;99.90
76120;DHT22;64852;48.092;-1.640;2023-01-20T04:00:23;4.70;99.90
76120;DHT22;64852;48.092;-1.640;2023-01-20T04:02:52;4.70;99.90
76120;DHT22;64852;48.092;-1.640;2023-01-20T04:05:20;4.80;99.90
76120;DHT22;64852;48.092;-1.640;2023-01-20T04:07:46;4.90;99.90
76120;DHT22;64852;48.092;-1.640;2023-01-20T04:10:13;4.90;99.90
76120;DHT22;64852;48.092;-1.640;2023-01-20T04:12:40;5.00;99.90
76120;DHT22;64852;48.092;-1.640;2023-01-20T04:15:07;5.10;99.90
76120;DHT22;64852;48.092;-1.640;2023-01-20T04:17:33;5.00;99.90
76120;DHT22;64852;48.092;-1.640;2023-01-20T04:20:05;4.80;99.90
76120;DHT22;64852;48.092;-1.640;2023-01-20T04:22:55;4.80;99.90
76120;DHT22;64852;48.092;-1.640;2023-01-20T04:25:28;4.80;99.90
76120;DHT22;64852;48.092;-1.640;2023-01-20T04:27:54;4.80;99.90
76120;DHT22;64852;48.092;-1.640;2023-01-20T04:30:19;5.20;99.90
76120;DHT22;64852;48.092;-1.640;2023-01-20T04:32:45;4.90;99.90
76120;DHT22;64852;48.092;-1.640;2023-01-20T04:35:16;4.90;99.90
76120;DHT22;64852;48.092;-1.640;2023-01-20T04:37:42;4.80;99.90
76120;DHT22;64852;48.092;-1.640;2023-01-20T04:40:08;4.60;99.90
76120;DHT22;64852;48.092;-1.640;2023-01-20T04:42:34;4.30;99.90
76120;DHT22;64852;48.092;-1.640;2023-01-20T04:45:00;4.40;99.90
76120;DHT22;64852;48.092;-1.640;2023-01-20T04:47:31;4.50;99.90
76120;DHT22;64852;48.092;-1.640;2023-01-20T04:49:58;4.60;99.90
76120;DHT22;64852;48.092;-1.640;2023-01-20T04:52:24;4.70;99.90
76120;DHT22;64852;48.092;-1.640;2023-01-20T04:54:49;4.50;99.90
76120;DHT22;64852;48.092;-1.640;2023-01-20T04:57:15;4.40;99.90
76120;DHT22;64852;48.092;-1.640;2023-01-20T04:59:41;4.40;99.90
76120;DHT22;64852;48.092;-1.640;2023-01-20T05:02:07;4.50;99.90
76120;DHT22;64852;48.092;-1.640;2023-01-20T05:04:32;4.40;99.90
76120;DHT22;64852;48.092;-1.640;2023-01-20T05:06:58;4.30;99.90
76120;DHT22;64852;48.092;-1.640;2023-01-20T05:09:24;5.10;99.90
76120;DHT22;64852;48.092;-1.640;2023-01-20T05:11:49;4.40;99.90
76120;DHT22;64852;48.092;-1.640;2023-01-20T05:14:15;4.70;99.90
76120;DHT22;64852;48.092;-1.640;2023-01-20T05:16:41;5.60;99.90
76120;DHT22;64852;48.092;-1.640;2023-01-20T05:19:08;4.90;99.90
76120;DHT22;64852;48.092;-1.640;2023-01-20T05:21:34;5.00;99.90
76120;DHT22;64852;48.092;-1.640;2023-01-20T05:24:00;5.00;99.90
76120;DHT22;64852;48.092;-1.640;2023-01-20T05:26:25;5.00;99.90
76120;DHT22;64852;48.092;-1.640;2023-01-20T05:28:51;4.90;99.90
76120;DHT22;64852;48.092;-1.640;2023-01-20T05:31:17;4.90;99.90
76120;DHT22;64852;48.092;-1.640;2023-01-20T05:33:43;4.90;99.90
76120;DHT22;64852;48.092;-1.640;2023-01-20T05:36:10;4.90;99.90
76120;DHT22;64852;48.092;-1.640;2023-01-20T05:38:36;4.80;99.90
76120;DHT22;64852;48.092;-1.640;2023-01-20T05:41:03;4.80;99.90
76120;DHT22;64852;48.092;-1.640;2023-01-20T05:43:29;4.70;99.90
76120;DHT22;64852;48.092;-1.640;2023-01-20T05:45:55;4.70;99.90
76120;DHT22;64852;48.092;-1.640;2023-01-20T05:48:21;4.70;99.90
76120;DHT22;64852;48.092;-1.640;2023-01-20T05:50:47;4.60;99.90
76120;DHT22;64852;48.092;-1.640;2023-01-20T05:53:13;4.80;99.90
76120;DHT22;64852;48.092;-1.640;2023-01-20T05:55:38;4.60;99.90
76120;DHT22;64852;48.092;-1.640;2023-01-20T05:58:05;4.60;99.90
76120;DHT22;64852;48.092;-1.640;2023-01-20T06:00:31;4.60;99.90
76120;DHT22;64852;48.092;-1.640;2023-01-20T06:02:57;4.50;99.90
76120;DHT22;64852;48.092;-1.640;2023-01-20T06:05:23;4.50;99.90
76120;DHT22;64852;48.092;-1.640;2023-01-20T06:07:48;4.60;99.90
76120;DHT22;64852;48.092;-1.640;2023-01-20T06:10:15;4.50;99.90
76120;DHT22;64852;48.092;-1.640;2023-01-20T06:12:41;4.50;99.90
76120;DHT22;64852;48.092;-1.640;2023-01-20T06:15:07;4.50;99.90
76120;DHT22;64852;48.092;-1.640;2023-01-20T06:17:32;4.50;99.90
76120;DHT22;64852;48.092;-1.640;2023-01-20T06:19:58;4.50;99.90
76120;DHT22;64852;48.092;-1.640;2023-01-20T06:22:25;4.50;99.90
76120;DHT22;64852;48.092;-1.640;2023-01-20T06:24:51;4.40;99.90
76120;DHT22;64852;48.092;-1.640;2023-01-20T06:27:17;4.40;99.90
76120;DHT22;64852;48.092;-1.640;2023-01-20T06:29:43;4.30;99.90
76120;DHT22;64852;48.092;-1.640;2023-01-20T06:32:08;4.30;99.90
76120;DHT22;64852;48.092;-1.640;2023-01-20T06:34:34;4.70;99.90
76120;DHT22;64852;48.092;-1.640;2023-01-20T06:37:01;4.30;99.90
76120;DHT22;64852;48.092;-1.640;2023-01-20T06:39:27;4.30;99.90
76120;DHT22;64852;48.092;-1.640;2023-01-20T06:41:56;4.40;99.90
76120;DHT22;64852;48.092;-1.640;2023-01-20T06:44:22;4.30;99.90
76120;DHT22;64852;48.092;-1.640;2023-01-20T06:46:47;4.30;99.90
76120;DHT22;64852;48.092;-1.640;2023-01-20T06:49:13;4.30;99.90
76120;DHT22;64852;48.092;-1.640;2023-01-20T06:51:39;4.30;99.90
76120;DHT22;64852;48.092;-1.640;2023-01-20T06:54:06;4.80;99.90
76120;DHT22;64852;48.092;-1.640;2023-01-20T06:56:31;4.30;99.90
76120;DHT22;64852;48.092;-1.640;2023-01-20T06:58:57;5.00;99.90
76120;DHT22;64852;48.092;-1.640;2023-01-20T07:01:28;4.30;99.90
76120;DHT22;64852;48.092;-1.640;2023-01-20T07:03:54;4.40;99.90
76120;DHT22;64852;48.092;-1.640;2023-01-20T07:06:28;4.40;99.90
76120;DHT22;64852;48.092;-1.640;2023-01-20T07:08:55;4.50;99.90
76120;DHT22;64852;48.092;-1.640;2023-01-20T07:11:21;4.50;99.90
76120;DHT22;64852;48.092;-1.640;2023-01-20T07:13:46;5.00;99.90
76120;DHT22;64852;48.092;-1.640;2023-01-20T07:16:13;4.80;99.90
76120;DHT22;64852;48.092;-1.640;2023-01-20T07:18:38;4.70;99.90
76120;DHT22;64852;48.092;-1.640;2023-01-20T07:21:04;4.80;99.90
76120;DHT22;64852;48.092;-1.640;2023-01-20T07:23:30;4.80;99.90
76120;DHT22;64852;48.092;-1.640;2023-01-20T07:26:03;4.80;99.90
76120;DHT22;64852;48.092;-1.640;2023-01-20T07:28:30;4.90;99.90
76120;DHT22;64852;48.092;-1.640;2023-01-20T07:31:04;5.00;99.90
76120;DHT22;64852;48.092;-1.640;2023-01-20T07:33:31;5.00;99.90
76120;DHT22;64852;48.092;-1.640;2023-01-20T07:35:57;5.00;99.90
76120;DHT22;64852;48.092;-1.640;2023-01-20T07:38:23;5.10;99.90
76120;DHT22;64852;48.092;-1.640;2023-01-20T07:40:49;5.10;99.90
76120;DHT22;64852;48.092;-1.640;2023-01-20T07:43:15;5.10;99.90
76120;DHT22;64852;48.092;-1.640;2023-01-20T07:45:41;5.10;99.90
76120;DHT22;64852;48.092;-1.640;2023-01-20T07:48:06;5.10;99.90
76120;DHT22;64852;48.092;-1.640;2023-01-20T07:50:35;5.00;99.90
76120;DHT22;64852;48.092;-1.640;2023-01-20T07:53:02;5.10;99.90
76120;DHT22;64852;48.092;-1.640;2023-01-20T07:55:28;5.00;99.90
76120;DHT22;64852;48.092;-1.640;2023-01-20T07:57:53;5.10;99.90
76120;DHT22;64852;48.092;-1.640;2023-01-20T08:00:20;5.00;99.90
76120;DHT22;64852;48.092;-1.640;2023-01-20T08:02:46;3.40;99.90
76120;DHT22;64852;48.092;-1.640;2023-01-20T08:05:12;4.90;99.90
76120;DHT22;64852;48.092;-1.640;2023-01-20T08:07:37;4.90;99.90
76120;DHT22;64852;48.092;-1.640;2023-01-20T08:10:03;4.80;99.90
76120;DHT22;64852;48.092;-1.640;2023-01-20T08:12:29;4.90;99.90
76120;DHT22;64852;48.092;-1.640;2023-01-20T08:14:55;4.80;99.90
76120;DHT22;64852;48.092;-1.640;2023-01-20T08:17:21;4.80;99.90
76120;DHT22;64852;48.092;-1.640;2023-01-20T08:19:46;4.80;99.90
76120;DHT22;64852;48.092;-1.640;2023-01-20T08:22:12;4.70;99.90
76120;DHT22;64852;48.092;-1.640;2023-01-20T08:24:38;4.60;99.90
76120;DHT22;64852;48.092;-1.640;2023-01-20T08:27:03;4.70;99.90
76120;DHT22;64852;48.092;-1.640;2023-01-20T08:29:29;4.60;99.90
76120;DHT22;64852;48.092;-1.640;2023-01-20T08:31:58;4.60;99.90
76120;DHT22;64852;48.092;-1.640;2023-01-20T08:34:25;4.60;99.90
76120;DHT22;64852;48.092;-1.640;2023-01-20T08:36:51;4.60;99.90
76120;DHT22;64852;48.092;-1.640;2023-01-20T08:39:19;4.60;99.90
76120;DHT22;64852;48.092;-1.640;2023-01-20T08:41:46;4.40;99.90
76120;DHT22;64852;48.092;-1.640;2023-01-20T08:44:13;4.50;99.90
76120;DHT22;64852;48.092;-1.640;2023-01-20T08:46:39;4.50;99.90
76120;DHT22;64852;48.092;-1.640;2023-01-20T08:49:15;4.50;99.90
76120;DHT22;64852;48.092;-1.640;2023-01-20T08:51:42;4.70;99.90
76120;DHT22;64852;48.092;-1.640;2023-01-20T08:54:09;4.60;99.90
76120;DHT22;64852;48.092;-1.640;2023-01-20T08:56:35;5.50;99.90
76120;DHT22;64852;48.092;-1.640;2023-01-20T08:59:01;4.70;99.90
76120;DHT22;64852;48.092;-1.640;2023-01-20T09:01:29;4.70;99.90
76120;DHT22;64852;48.092;-1.640;2023-01-20T09:03:56;4.80;99.90
76120;DHT22;64852;48.092;-1.640;2023-01-20T09:06:22;4.80;99.90
76120;DHT22;64852;48.092;-1.640;2023-01-20T09:08:49;4.90;99.90
76120;DHT22;64852;48.092;-1.640;2023-01-20T09:11:17;5.20;99.90
76120;DHT22;64852;48.092;-1.640;2023-01-20T09:13:43;4.90;99.90
76120;DHT22;64852;48.092;-1.640;2023-01-20T09:16:13;5.10;99.90
76120;DHT22;64852;48.092;-1.640;2023-01-20T09:18:39;5.20;99.90
76120;DHT22;64852;48.092;-1.640;2023-01-20T09:21:06;5.30;99.90
76120;DHT22;64852;48.092;-1.640;2023-01-20T09:23:32;5.50;99.90
76120;DHT22;64852;48.092;-1.640;2023-01-20T09:25:59;5.70;99.90
76120;DHT22;64852;48.092;-1.640;2023-01-20T09:28:24;5.90;99.90
76120;DHT22;64852;48.092;-1.640;2023-01-20T09:30:59;6.10;99.90
76120;DHT22;64852;48.092;-1.640;2023-01-20T09:33:26;6.20;99.90
76120;DHT22;64852;48.092;-1.640;2023-01-20T09:35:56;6.30;99.90
76120;DHT22;64852;48.092;-1.640;2023-01-20T09:38:23;6.40;99.90
76120;DHT22;64852;48.092;-1.640;2023-01-20T09:49:23;6.70;99.90
76120;DHT22;64852;48.092;-1.640;2023-01-20T09:52:26;6.70;99.90
76120;DHT22;64852;48.092;-1.640;2023-01-20T09:55:18;6.80;99.90
76120;DHT22;64852;48.092;-1.640;2023-01-20T09:57:51;6.70;99.90
76120;DHT22;64852;48.092;-1.640;2023-01-20T10:00:26;6.80;99.90
76120;DHT22;64852;48.092;-1.640;2023-01-20T10:03:04;6.90;99.90
76120;DHT22;64852;48.092;-1.640;2023-01-20T10:05:37;6.90;99.90
76120;DHT22;64852;48.092;-1.640;2023-01-20T10:08:13;6.90;99.90
76120;DHT22;64852;48.092;-1.640;2023-01-20T10:11:02;7.00;99.90
76120;DHT22;64852;48.092;-1.640;2023-01-20T10:13:41;7.10;99.90
76120;DHT22;64852;48.092;-1.640;2023-01-20T10:16:38;7.20;99.90
76120;DHT22;64852;48.092;-1.640;2023-01-20T10:19:20;7.20;99.90
76120;DHT22;64852;48.092;-1.640;2023-01-20T10:25:16;7.40;99.90
76120;DHT22;64852;48.092;-1.640;2023-01-20T10:27:48;7.50;99.90
76120;DHT22;64852;48.092;-1.640;2023-01-20T10:30:16;7.40;99.90
76120;DHT22;64852;48.092;-1.640;2023-01-20T10:33:12;7.60;99.90
76120;DHT22;64852;48.092;-1.640;2023-01-20T10:35:45;7.50;99.90
76120;DHT22;64852;48.092;-1.640;2023-01-20T10:41:19;7.70;99.90
76120;DHT22;64852;48.092;-1.640;2023-01-20T10:43:47;7.70;99.90
76120;DHT22;64852;48.092;-1.640;2023-01-20T10:57:13;7.60;99.90
76120;DHT22;64852;48.092;-1.640;2023-01-20T10:59:45;7.70;99.90
76120;DHT22;64852;48.092;-1.640;2023-01-20T11:02:20;7.80;99.90
76120;DHT22;64852;48.092;-1.640;2023-01-20T11:05:00;7.80;99.90
76120;DHT22;64852;48.092;-1.640;2023-01-20T11:07:28;8.00;99.90
76120;DHT22;64852;48.092;-1.640;2023-01-20T11:09:54;8.10;99.90
76120;DHT22;64852;48.092;-1.640;2023-01-20T11:12:24;8.10;99.90
76120;DHT22;64852;48.092;-1.640;2023-01-20T11:14:53;8.10;99.90
76120;DHT22;64852;48.092;-1.640;2023-01-20T11:17:19;8.10;99.90
76120;DHT22;64852;48.092;-1.640;2023-01-20T11:22:22;8.10;99.90
76120;DHT22;64852;48.092;-1.640;2023-01-20T11:24:52;8.00;99.90
76120;DHT22;64852;48.092;-1.640;2023-01-20T11:27:21;7.90;99.90
76120;DHT22;64852;48.092;-1.640;2023-01-20T11:29:55;8.10;99.90
76120;DHT22;64852;48.092;-1.640;2023-01-20T11:32:27;8.10;99.90
76120;DHT22;64852;48.092;-1.640;2023-01-20T11:34:54;8.00;99.90
76120;DHT22;64852;48.092;-1.640;2023-01-20T11:37:26;8.10;99.90
76120;DHT22;64852;48.092;-1.640;2023-01-20T11:39:58;8.10;99.90
76120;DHT22;64852;48.092;-1.640;2023-01-20T11:42:30;8.10;99.90
76120;DHT22;64852;48.092;-1.640;2023-01-20T11:45:31;8.20;99.90
76120;DHT22;64852;48.092;-1.640;2023-01-20T11:48:05;8.30;99.90
76120;DHT22;64852;48.092;-1.640;2023-01-20T11:50:39;8.40;99.90
76120;DHT22;64852;48.092;-1.640;2023-01-20T11:53:17;8.30;99.90
76120;DHT22;64852;48.092;-1.640;2023-01-20T11:55:58;8.40;99.90
76120;DHT22;64852;48.092;-1.640;2023-01-20T11:58:30;8.50;99.90
76120;DHT22;64852;48.092;-1.640;2023-01-20T12:01:13;8.50;99.90
76120;DHT22;64852;48.092;-1.640;2023-01-20T12:06:26;8.60;99.90
76120;DHT22;64852;48.092;-1.640;2023-01-20T12:09:07;8.70;99.90
76120;DHT22;64852;48.092;-1.640;2023-01-20T12:11:38;8.60;99.90
76120;DHT22;64852;48.092;-1.640;2023-01-20T12:19:39;8.90;99.90
76120;DHT22;64852;48.092;-1.640;2023-01-20T12:22:17;9.00;99.90
76120;DHT22;64852;48.092;-1.640;2023-01-20T12:24:57;9.10;99.90
76120;DHT22;64852;48.092;-1.640;2023-01-20T12:27:33;9.30;99.90
76120;DHT22;64852;48.092;-1.640;2023-01-20T12:30:03;9.40;99.90
76120;DHT22;64852;48.092;-1.640;2023-01-20T12:32:30;9.50;99.90
76120;DHT22;64852;48.092;-1.640;2023-01-20T12:34:58;9.60;99.90
76120;DHT22;64852;48.092;-1.640;2023-01-20T12:37:42;9.60;99.90
76120;DHT22;64852;48.092;-1.640;2023-01-20T12:40:39;9.60;99.90
76120;DHT22;64852;48.092;-1.640;2023-01-20T12:43:16;9.60;99.90
76120;DHT22;64852;48.092;-1.640;2023-01-20T12:46:18;9.70;99.90
76120;DHT22;64852;48.092;-1.640;2023-01-20T12:49:00;9.90;99.90
76120;DHT22;64852;48.092;-1.640;2023-01-20T12:51:43;9.90;99.90
76120;DHT22;64852;48.092;-1.640;2023-01-20T13:08:54;10.50;99.90
76120;DHT22;64852;48.092;-1.640;2023-01-20T13:14:37;12.80;99.90
76120;DHT22;64852;48.092;-1.640;2023-01-20T13:19:39;10.70;99.90
76120;DHT22;64852;48.092;-1.640;2023-01-20T13:22:12;10.60;99.90
76120;DHT22;64852;48.092;-1.640;2023-01-20T13:24:43;10.60;99.90
76120;DHT22;64852;48.092;-1.640;2023-01-20T13:27:10;10.60;99.90
76120;DHT22;64852;48.092;-1.640;2023-01-20T13:32:34;10.70;99.90
76120;DHT22;64852;48.092;-1.640;2023-01-20T13:37:50;10.40;99.90
76120;DHT22;64852;48.092;-1.640;2023-01-20T13:43:00;9.40;99.90
76120;DHT22;64852;48.092;-1.640;2023-01-20T13:45:26;9.40;99.90
76120;DHT22;64852;48.092;-1.640;2023-01-20T13:50:35;9.60;99.90
76120;DHT22;64852;48.092;-1.640;2023-01-20T13:58:17;9.80;99.90
76120;DHT22;64852;48.092;-1.640;2023-01-20T14:01:03;9.70;99.90
76120;DHT22;64852;48.092;-1.640;2023-01-20T14:03:37;9.20;99.90
76120;DHT22;64852;48.092;-1.640;2023-01-20T14:11:17;9.50;99.90
76120;DHT22;64852;48.092;-1.640;2023-01-20T14:14:03;9.60;99.90
76120;DHT22;64852;48.092;-1.640;2023-01-20T14:19:22;9.80;99.90
76120;DHT22;64852;48.092;-1.640;2023-01-20T14:21:54;9.50;99.90
76120;DHT22;64852;48.092;-1.640;2023-01-20T14:24:34;9.70;99.90
76120;DHT22;64852;48.092;-1.640;2023-01-20T14:29:45;10.00;99.90
76120;DHT22;64852;48.092;-1.640;2023-01-20T14:32:33;9.90;99.90
76120;DHT22;64852;48.092;-1.640;2023-01-20T14:35:00;10.00;99.90
76120;DHT22;64852;48.092;-1.640;2023-01-20T14:37:31;10.20;99.90
76120;DHT22;64852;48.092;-1.640;2023-01-20T14:40:18;10.70;99.90
76120;DHT22;64852;48.092;-1.640;2023-01-20T14:43:01;10.80;99.90
76120;DHT22;64852;48.092;-1.640;2023-01-20T14:45:29;11.10;99.90
76120;DHT22;64852;48.092;-1.640;2023-01-20T14:47:56;10.80;99.90
76120;DHT22;64852;48.092;-1.640;2023-01-20T14:50:23;10.10;99.90
76120;DHT22;64852;48.092;-1.640;2023-01-20T14:52:49;9.90;99.90
76120;DHT22;64852;48.092;-1.640;2023-01-20T14:57:58;9.80;99.90
76120;DHT22;64852;48.092;-1.640;2023-01-20T15:00:27;9.90;99.90
76120;DHT22;64852;48.092;-1.640;2023-01-20T15:05:23;9.60;99.90
76120;DHT22;64852;48.092;-1.640;2023-01-20T15:10:40;10.00;99.90
76120;DHT22;64852;48.092;-1.640;2023-01-20T15:13:26;9.80;99.90
76120;DHT22;64852;48.092;-1.640;2023-01-20T15:16:15;9.60;99.90
76120;DHT22;64852;48.092;-1.640;2023-01-20T15:18:43;9.60;99.90
76120;DHT22;64852;48.092;-1.640;2023-01-20T15:23:43;9.80;99.90
76120;DHT22;64852;48.092;-1.640;2023-01-20T15:26:27;9.70;99.90
76120;DHT22;64852;48.092;-1.640;2023-01-20T15:28:53;9.50;99.90
76120;DHT22;64852;48.092;-1.640;2023-01-20T15:31:19;9.40;99.90
76120;DHT22;64852;48.092;-1.640;2023-01-20T15:33:45;9.50;99.90
76120;DHT22;64852;48.092;-1.640;2023-01-20T15:36:19;9.40;99.90
76120;DHT22;64852;48.092;-1.640;2023-01-20T15:38:46;9.40;99.90
76120;DHT22;64852;48.092;-1.640;2023-01-20T15:41:12;9.10;99.90
76120;DHT22;64852;48.092;-1.640;2023-01-20T15:43:38;9.00;99.90
76120;DHT22;64852;48.092;-1.640;2023-01-20T15:46:14;9.30;99.90
76120;DHT22;64852;48.092;-1.640;2023-01-20T15:48:40;9.30;99.90
76120;DHT22;64852;48.092;-1.640;2023-01-20T15:51:13;9.40;99.90
76120;DHT22;64852;48.092;-1.640;2023-01-20T15:53:39;9.30;99.90
76120;DHT22;64852;48.092;-1.640;2023-01-20T15:56:08;9.20;99.90
76120;DHT22;64852;48.092;-1.640;2023-01-20T15:58:36;9.00;99.90
76120;DHT22;64852;48.092;-1.640;2023-01-20T16:01:01;9.00;99.90
76120;DHT22;64852;48.092;-1.640;2023-01-20T16:03:27;8.90;99.90
76120;DHT22;64852;48.092;-1.640;2023-01-20T16:05:54;8.90;99.90
76120;DHT22;64852;48.092;-1.640;2023-01-20T16:08:28;8.90;99.90
76120;DHT22;64852;48.092;-1.640;2023-01-20T16:10:55;8.70;99.90
76120;DHT22;64852;48.092;-1.640;2023-01-20T16:13:21;8.80;99.90
76120;DHT22;64852;48.092;-1.640;2023-01-20T16:15:47;8.80;99.90
76120;DHT22;64852;48.092;-1.640;2023-01-20T16:18:14;9.10;99.90
76120;DHT22;64852;48.092;-1.640;2023-01-20T16:20:42;9.10;99.90
76120;DHT22;64852;48.092;-1.640;2023-01-20T16:23:08;9.20;99.90
76120;DHT22;64852;48.092;-1.640;2023-01-20T16:25:34;9.20;99.90
76120;DHT22;64852;48.092;-1.640;2023-01-20T16:28:00;9.30;99.90
76120;DHT22;64852;48.092;-1.640;2023-01-20T16:30:26;9.20;99.90
76120;DHT22;64852;48.092;-1.640;2023-01-20T16:32:52;9.20;99.90
76120;DHT22;64852;48.092;-1.640;2023-01-20T16:35:19;9.20;99.90
76120;DHT22;64852;48.092;-1.640;2023-01-20T16:37:46;9.20;99.90
76120;DHT22;64852;48.092;-1.640;2023-01-20T16:40:17;9.20;99.90
76120;DHT22;64852;48.092;-1.640;2023-01-20T16:42:43;9.20;99.90
76120;DHT22;64852;48.092;-1.640;2023-01-20T16:45:27;9.20;99.90
76120;DHT22;64852;48.092;-1.640;2023-01-20T16:47:54;9.20;99.90
76120;DHT22;64852;48.092;-1.640;2023-01-20T16:50:20;9.20;99.90
76120;DHT22;64852;48.092;-1.640;2023-01-20T16:52:45;9.30;99.90
76120;DHT22;64852;48.092;-1.640;2023-01-20T16:55:11;9.20;99.90
76120;DHT22;64852;48.092;-1.640;2023-01-20T16:57:37;9.20;99.90
76120;DHT22;64852;48.092;-1.640;2023-01-20T17:00:04;9.20;99.90
76120;DHT22;64852;48.092;-1.640;2023-01-20T17:02:30;9.30;99.90
76120;DHT22;64852;48.092;-1.640;2023-01-20T17:04:58;9.20;99.90
76120;DHT22;64852;48.092;-1.640;2023-01-20T17:07:24;9.30;99.90
76120;DHT22;64852;48.092;-1.640;2023-01-20T17:09:49;9.30;99.90
76120;DHT22;64852;48.092;-1.640;2023-01-20T17:12:15;9.30;99.90
76120;DHT22;64852;48.092;-1.640;2023-01-20T17:14:41;9.30;99.90
76120;DHT22;64852;48.092;-1.640;2023-01-20T17:17:06;9.30;99.90
76120;DHT22;64852;48.092;-1.640;2023-01-20T17:19:32;9.50;99.90
76120;DHT22;64852;48.092;-1.640;2023-01-20T17:21:58;9.40;99.90
76120;DHT22;64852;48.092;-1.640;2023-01-20T17:24:23;9.40;99.90
76120;DHT22;64852;48.092;-1.640;2023-01-20T17:26:49;9.30;99.90
76120;DHT22;64852;48.092;-1.640;2023-01-20T17:29:14;9.30;99.90
76120;DHT22;64852;48.092;-1.640;2023-01-20T17:31:46;9.30;99.90
76120;DHT22;64852;48.092;-1.640;2023-01-20T17:34:11;9.20;99.90
76120;DHT22;64852;48.092;-1.640;2023-01-20T17:36:37;9.10;99.90
76120;DHT22;64852;48.092;-1.640;2023-01-20T17:39:04;9.10;99.90
76120;DHT22;64852;48.092;-1.640;2023-01-20T17:41:30;9.00;99.90
76120;DHT22;64852;48.092;-1.640;2023-01-20T17:43:56;9.10;99.90
76120;DHT22;64852;48.092;-1.640;2023-01-20T17:46:22;9.00;99.90
76120;DHT22;64852;48.092;-1.640;2023-01-20T17:48:49;8.90;99.90
76120;DHT22;64852;48.092;-1.640;2023-01-20T17:51:17;8.90;99.90